createdAt,value
2022-12-22T00:01:51.279Z,99858.28
2022-12-22T00:04:36.494Z,99861.81
2022-12-22T00:07:21.528Z,99858.72
2022-12-22T00:10:06.472Z,99861.50
2022-12-22T00:12:51.337Z,99859.66
2022-12-22T00:15:36.278Z,99856.41
2022-12-22T00:18:21.107Z,99848.22
2022-12-22T00:21:06.052Z,99846.28
2022-12-22T00:23:50.990Z,99839.22
2022-12-22T00:26:35.997Z,99834.00
2022-12-22T00:29:20.955Z,99845.53
2022-12-22T00:32:05.828Z,99842.19
2022-12-22T00:34:50.841Z,99837.19
2022-12-22T00:37:35.658Z,99845.47
2022-12-22T00:40:20.568Z,99853.56
2022-12-22T00:43:05.533Z,99846.56
2022-12-22T00:45:50.599Z,99842.41
2022-12-22T00:48:35.802Z,99823.50
2022-12-22T00:51:20.757Z,99825.84
2022-12-22T00:54:05.765Z,99817.34
2022-12-22T00:56:50.569Z,99817.47
2022-12-22T00:59:35.603Z,99812.75
2022-12-22T01:02:20.715Z,99819.09
2022-12-22T01:05:05.772Z,99810.31
2022-12-22T01:07:50.596Z,99807.34
2022-12-22T01:10:35.650Z,99811.13
2022-12-22T01:13:20.644Z,99803.06
2022-12-22T01:16:05.641Z,99802.41
2022-12-22T01:18:50.652Z,99796.16
2022-12-22T01:21:35.561Z,99796.38
2022-12-22T01:24:20.554Z,99791.97
2022-12-22T01:27:05.473Z,99792.78
2022-12-22T01:29:50.522Z,99780.13
2022-12-22T01:32:35.339Z,99781.06
2022-12-22T01:35:20.284Z,99769.69
2022-12-22T01:38:05.402Z,99767.66
2022-12-22T01:40:50.412Z,99759.91
2022-12-22T01:43:35.378Z,99754.19
2022-12-22T01:46:20.634Z,99745.97
2022-12-22T01:49:05.831Z,99755.56
2022-12-22T01:51:50.746Z,99754.63
2022-12-22T01:54:35.683Z,99761.19
2022-12-22T01:57:20.465Z,99758.41
2022-12-22T02:00:05.365Z,99756.34
2022-12-22T02:02:50.556Z,99748.87
2022-12-22T02:05:35.740Z,99746.44
2022-12-22T02:08:20.737Z,99732.19
2022-12-22T02:11:05.588Z,99733.13
2022-12-22T02:13:50.506Z,99722.91
2022-12-22T02:16:35.547Z,99724.25
2022-12-22T02:19:20.823Z,99722.31
2022-12-22T02:22:05.770Z,99727.84
2022-12-22T02:24:50.644Z,99711.66
2022-12-22T02:27:35.781Z,99712.97
2022-12-22T02:30:20.629Z,99720.31
2022-12-22T02:33:09.882Z,99709.09
2022-12-22T02:35:55.529Z,99702.44
2022-12-22T02:38:40.439Z,99705.41
2022-12-22T02:41:25.680Z,99691.09
2022-12-22T02:44:10.500Z,99706.50
2022-12-22T02:46:55.404Z,99694.97
2022-12-22T02:49:40.633Z,99695.59
2022-12-22T02:52:25.547Z,99681.28
2022-12-22T02:55:10.597Z,99678.91
2022-12-22T02:57:55.592Z,99679.03
2022-12-22T03:00:40.773Z,99675.31
2022-12-22T03:03:26.264Z,99671.75
2022-12-22T03:06:11.460Z,99668.19
2022-12-22T03:08:56.339Z,99673.56
2022-12-22T03:11:41.272Z,99670.81
2022-12-22T03:14:26.313Z,99672.81
2022-12-22T03:17:11.166Z,99663.03
2022-12-22T03:19:56.125Z,99648.91
2022-12-22T03:22:41.028Z,99640.28
2022-12-22T03:25:26.056Z,99632.00
2022-12-22T03:27:52.517Z,99626.16
2022-12-22T03:30:18.844Z,99614.81
2022-12-22T03:32:45.176Z,99619.81
2022-12-22T03:35:11.486Z,99622.44
2022-12-22T03:37:37.837Z,99619.41
2022-12-22T03:40:04.136Z,99615.16
2022-12-22T03:42:49.359Z,99603.81
2022-12-22T03:45:34.341Z,99603.63
2022-12-22T03:48:00.661Z,99586.28
2022-12-22T03:50:26.998Z,99599.09
2022-12-22T03:52:53.309Z,99590.31
2022-12-22T03:55:19.767Z,99599.41
2022-12-22T03:57:46.073Z,99588.72
2022-12-22T04:00:12.401Z,99600.59
2022-12-22T04:02:38.833Z,99589.22
2022-12-22T04:05:05.334Z,99588.22
2022-12-22T04:07:31.650Z,99598.00
2022-12-22T04:10:17.073Z,99589.53
2022-12-22T04:12:55.447Z,99586.97
2022-12-22T04:15:21.897Z,99580.47
2022-12-22T04:17:48.195Z,99582.06
2022-12-22T04:20:14.503Z,99584.38
2022-12-22T04:22:40.810Z,99580.47
2022-12-22T04:25:07.124Z,99573.00
2022-12-22T04:27:33.468Z,99568.78
2022-12-22T04:29:59.773Z,99566.37
2022-12-22T04:32:26.094Z,99565.53
2022-12-22T04:34:52.404Z,99560.47
2022-12-22T04:37:18.714Z,99555.28
2022-12-22T04:39:45.072Z,99561.28
2022-12-22T04:42:11.370Z,99560.63
2022-12-22T04:44:37.672Z,99553.34
2022-12-22T04:47:03.986Z,99560.47
2022-12-22T04:49:30.327Z,99548.00
2022-12-22T04:51:56.688Z,99543.41
2022-12-22T04:54:23.005Z,99537.94
2022-12-22T04:56:49.301Z,99537.91
2022-12-22T04:59:15.624Z,99534.13
2022-12-22T05:01:42.016Z,99535.81
2022-12-22T05:04:08.423Z,99529.47
2022-12-22T05:06:34.752Z,99535.13
2022-12-22T05:09:01.061Z,99535.75
2022-12-22T05:11:27.364Z,99520.66
2022-12-22T05:13:53.675Z,99514.47
2022-12-22T05:16:20.040Z,99510.41
2022-12-22T05:18:46.391Z,99495.12
2022-12-22T05:21:12.714Z,99499.69
2022-12-22T05:23:39.018Z,99506.66
2022-12-22T05:26:05.328Z,99501.78
2022-12-22T05:28:32.327Z,99499.53
2022-12-22T05:30:58.739Z,99507.84
2022-12-22T05:33:25.074Z,99501.12
2022-12-22T05:35:51.385Z,99494.97
2022-12-22T05:38:17.691Z,99490.28
2022-12-22T05:40:44.045Z,99481.66
2022-12-22T05:43:10.422Z,99485.56
2022-12-22T05:45:36.776Z,99480.06
2022-12-22T05:48:03.121Z,99473.22
2022-12-22T05:50:29.531Z,99473.34
2022-12-22T05:52:55.849Z,99471.25
2022-12-22T05:55:22.253Z,99474.53
2022-12-22T05:57:48.567Z,99469.47
2022-12-22T06:00:14.886Z,99461.53
2022-12-22T06:02:41.295Z,99467.69
2022-12-22T06:05:07.707Z,99457.31
2022-12-22T06:07:34.043Z,99457.63
2022-12-22T06:10:00.731Z,99470.34
2022-12-22T06:12:28.205Z,99462.84
2022-12-22T06:14:54.532Z,99458.47
2022-12-22T06:17:20.863Z,99452.94
2022-12-22T06:19:47.175Z,99445.13
2022-12-22T06:22:13.478Z,99454.88
2022-12-22T06:24:39.773Z,99455.88
2022-12-22T06:27:06.101Z,99451.47
2022-12-22T06:29:32.396Z,99455.03
2022-12-22T06:31:58.758Z,99454.56
2022-12-22T06:34:25.066Z,99442.53
2022-12-22T06:36:51.398Z,99446.09
2022-12-22T06:39:17.740Z,99448.72
2022-12-22T06:42:03.170Z,99445.31
2022-12-22T06:44:29.463Z,99444.50
2022-12-22T06:46:55.833Z,99451.31
2022-12-22T06:49:22.181Z,99455.38
2022-12-22T06:51:48.574Z,99462.53
2022-12-22T06:54:14.908Z,99456.66
2022-12-22T06:56:41.261Z,99464.97
2022-12-22T06:59:07.627Z,99465.66
2022-12-22T07:01:34.008Z,99460.91
2022-12-22T07:04:00.476Z,99469.84
2022-12-22T07:06:26.901Z,99463.50
2022-12-22T07:08:53.219Z,99449.53
2022-12-22T07:11:19.537Z,99447.72
2022-12-22T07:13:45.949Z,99440.56
2022-12-22T07:16:12.347Z,99433.25
2022-12-22T07:18:38.692Z,99435.03
2022-12-22T07:21:05.029Z,99433.25
2022-12-22T07:23:31.374Z,99430.16
2022-12-22T07:25:57.727Z,99425.62
2022-12-22T07:28:24.033Z,99418.62
2022-12-22T07:30:50.494Z,99412.94
2022-12-22T07:33:16.847Z,99421.25
2022-12-22T07:35:43.322Z,99414.22
2022-12-22T07:38:09.657Z,99412.28
2022-12-22T07:40:41.617Z,99405.75
2022-12-22T07:43:08.345Z,99402.00
2022-12-22T07:45:34.680Z,99399.41
2022-12-22T07:48:01.055Z,99401.00
2022-12-22T07:50:32.597Z,99393.84
2022-12-22T07:52:58.936Z,99401.47
2022-12-22T07:55:25.251Z,99399.69
2022-12-22T07:57:51.586Z,99400.50
2022-12-22T08:00:17.912Z,99391.84
2022-12-22T08:02:46.126Z,99404.88
2022-12-22T08:05:12.574Z,99397.53
2022-12-22T08:07:39.050Z,99400.16
2022-12-22T08:10:05.419Z,99393.16
2022-12-22T08:12:32.844Z,99394.31
2022-12-22T08:14:59.744Z,99393.81
2022-12-22T08:17:26.075Z,99381.44
2022-12-22T08:19:52.405Z,99377.63
2022-12-22T08:22:18.816Z,99363.97
2022-12-22T08:24:45.127Z,99364.84
2022-12-22T08:27:11.441Z,99358.50
2022-12-22T08:29:37.810Z,99359.13
2022-12-22T08:32:04.199Z,99344.94
2022-12-22T08:34:30.560Z,99352.03
2022-12-22T08:36:56.893Z,99343.66
2022-12-22T08:39:23.214Z,99340.31
2022-12-22T08:41:52.784Z,99343.94
2022-12-22T08:44:19.263Z,99337.44
2022-12-22T08:46:45.625Z,99329.84
2022-12-22T08:49:11.994Z,99315.53
2022-12-22T08:51:38.324Z,99319.25
2022-12-22T08:54:06.252Z,99308.66
2022-12-22T08:59:07.992Z,99298.25
2022-12-22T09:01:34.370Z,99298.25
2022-12-22T09:04:00.810Z,99305.81
2022-12-22T09:06:28.024Z,99306.16
2022-12-22T09:08:56.324Z,99303.84
2022-12-22T09:11:22.646Z,99302.22
2022-12-22T09:13:48.990Z,99299.09
2022-12-22T09:16:15.333Z,99300.94
2022-12-22T09:18:41.674Z,99298.50
2022-12-22T09:21:07.997Z,99288.91
2022-12-22T09:23:34.309Z,99288.31
2022-12-22T09:26:00.657Z,99279.97
2022-12-22T09:28:27.022Z,99284.31
2022-12-22T09:30:54.583Z,99284.84
2022-12-22T09:33:20.956Z,99281.25
2022-12-22T09:35:47.444Z,99290.84
2022-12-22T09:38:13.756Z,99284.34
2022-12-22T09:40:40.098Z,99281.69
2022-12-22T09:43:06.456Z,99274.66
2022-12-22T09:45:34.054Z,99281.03
2022-12-22T09:48:00.464Z,99266.75
2022-12-22T09:50:26.816Z,99266.75
2022-12-22T09:52:53.517Z,99255.41
2022-12-22T09:55:19.814Z,99250.34
2022-12-22T09:57:46.152Z,99257.38
2022-12-22T10:00:12.478Z,99251.97
2022-12-22T10:02:38.832Z,99252.28
2022-12-22T10:05:05.208Z,99239.31
2022-12-22T10:07:31.786Z,99238.63
2022-12-22T10:09:58.105Z,99239.34
2022-12-22T10:12:24.467Z,99236.41
2022-12-22T10:14:50.850Z,99219.72
2022-12-22T10:17:17.237Z,99218.56
2022-12-22T10:19:43.574Z,99226.09
2022-12-22T10:22:09.900Z,99205.56
2022-12-22T10:24:36.229Z,99208.44
2022-12-22T10:27:04.467Z,99202.53
2022-12-22T10:29:30.816Z,99201.69
2022-12-22T10:31:57.213Z,99201.25
2022-12-22T10:34:23.545Z,99189.69
2022-12-22T10:36:49.880Z,99194.78
2022-12-22T10:39:16.255Z,99204.47
2022-12-22T10:41:42.563Z,99191.75
2022-12-22T10:44:09.156Z,99194.13
2022-12-22T10:46:35.711Z,99193.87
2022-12-22T10:49:02.120Z,99197.03
2022-12-22T10:51:28.473Z,99199.00
2022-12-22T10:53:54.784Z,99198.00
2022-12-22T10:56:21.113Z,99199.81
2022-12-22T10:58:47.458Z,99179.69
2022-12-22T11:01:13.951Z,99183.63
2022-12-22T11:03:40.433Z,99186.06
2022-12-22T11:06:06.792Z,99193.59
2022-12-22T11:08:33.111Z,99184.53
2022-12-22T11:10:59.430Z,99176.97
2022-12-22T11:13:25.770Z,99172.31
2022-12-22T11:15:52.168Z,99157.06
2022-12-22T11:18:18.499Z,99166.59
2022-12-22T11:20:44.836Z,99158.34
2022-12-22T11:23:11.184Z,99155.03
2022-12-22T11:25:37.497Z,99153.06
2022-12-22T11:28:03.844Z,99144.62
2022-12-22T11:30:30.277Z,99146.75
2022-12-22T11:32:56.641Z,99141.56
2022-12-22T11:35:23.050Z,99138.66
2022-12-22T11:37:49.476Z,99137.59
2022-12-22T11:40:15.918Z,99130.69
2022-12-22T11:42:42.277Z,99119.81
2022-12-22T11:45:08.613Z,99108.69
2022-12-22T11:47:34.915Z,99105.53
2022-12-22T11:50:57.319Z,99107.88
2022-12-22T11:52:47.796Z,99112.56
2022-12-22T11:55:14.140Z,99109.91
2022-12-22T11:57:40.593Z,99109.06
2022-12-22T12:00:07.292Z,99103.22
2022-12-22T12:02:33.636Z,99105.72
2022-12-22T12:05:00.368Z,99107.31
2022-12-22T12:07:26.877Z,99098.44
2022-12-22T12:09:53.304Z,99096.47
2022-12-22T12:12:19.630Z,99091.78
2022-12-22T12:14:45.989Z,99095.03
2022-12-22T12:17:12.339Z,99093.97
2022-12-22T12:19:40.203Z,99093.44
2022-12-22T12:22:06.627Z,99103.03
2022-12-22T12:24:33.021Z,99089.62
2022-12-22T12:26:59.361Z,99097.62
2022-12-22T12:29:25.713Z,99093.59
2022-12-22T12:31:52.129Z,99088.91
2022-12-22T12:34:18.548Z,99080.81
2022-12-22T12:36:45.003Z,99088.44
2022-12-22T12:39:11.340Z,99085.38
2022-12-22T12:41:37.656Z,99081.88
2022-12-22T12:44:03.996Z,99093.25
2022-12-22T12:46:30.391Z,99082.78
2022-12-22T12:48:56.725Z,99082.69
2022-12-22T12:51:23.172Z,99080.75
2022-12-22T12:53:49.499Z,99078.06
2022-12-22T12:56:15.920Z,99070.16
2022-12-22T12:58:43.494Z,99071.97
2022-12-22T13:01:10.030Z,99087.50
2022-12-22T13:04:02.528Z,99068.47
2022-12-22T13:06:22.712Z,99086.16
2022-12-22T13:08:51.008Z,99081.13
2022-12-22T13:11:37.843Z,99073.28
2022-12-22T13:14:03.840Z,99073.66
2022-12-22T13:16:30.580Z,99074.72
2022-12-22T13:19:00.373Z,99055.41
2022-12-22T13:26:59.589Z,99072.66
2022-12-22T13:29:25.912Z,99077.84
2022-12-22T13:30:51.055Z,99075.62
2022-12-22T13:31:52.268Z,99071.31
2022-12-22T13:34:18.625Z,99069.38
2022-12-22T13:36:44.963Z,99085.03
2022-12-22T13:39:11.340Z,99079.09
2022-12-22T13:41:37.722Z,99078.03
2022-12-22T13:44:04.221Z,99086.03
2022-12-22T13:46:30.605Z,99075.78
2022-12-22T13:48:57.047Z,99077.25
2022-12-22T13:51:23.499Z,99078.13
2022-12-22T13:54:07.653Z,99078.91
2022-12-22T13:56:35.217Z,99084.03
2022-12-22T13:59:02.127Z,99081.03
2022-12-22T14:01:28.540Z,99083.62
2022-12-22T14:04:00.787Z,99074.25
2022-12-22T14:06:28.427Z,99082.59
2022-12-22T14:08:54.901Z,99077.19
2022-12-22T14:11:21.229Z,99086.72
2022-12-22T14:13:47.703Z,99087.50
2022-12-22T14:16:14.085Z,99082.12
2022-12-22T14:18:40.472Z,99074.28
2022-12-22T14:21:07.456Z,99076.13
2022-12-22T14:23:33.762Z,99085.25
2022-12-22T14:26:01.869Z,99084.84
2022-12-22T14:28:28.202Z,99093.09
2022-12-22T14:30:54.565Z,99079.16
2022-12-22T14:33:21.026Z,99082.34
2022-12-22T14:35:47.361Z,99089.84
2022-12-22T14:38:13.743Z,99085.78
2022-12-22T14:40:40.089Z,99086.50
2022-12-22T14:43:06.407Z,99098.72
2022-12-22T14:45:32.798Z,99090.78
2022-12-22T14:47:59.245Z,99097.56
2022-12-22T14:50:25.569Z,99105.12
2022-12-22T14:52:51.987Z,99103.03
2022-12-22T14:55:18.290Z,99105.19
2022-12-22T14:57:44.626Z,99106.66
2022-12-22T15:00:10.933Z,99103.47
2022-12-22T15:02:40.053Z,99111.84
2022-12-22T15:05:07.462Z,99115.81
2022-12-22T15:08:05.191Z,99116.56
2022-12-22T15:10:20.574Z,99115.00
2022-12-22T15:12:47.220Z,99126.91
2022-12-22T15:15:13.959Z,99133.25
2022-12-22T15:17:40.284Z,99128.41
2022-12-22T15:20:07.222Z,99128.53
2022-12-22T15:22:33.588Z,99132.97
2022-12-22T15:24:59.986Z,99149.81
2022-12-22T15:27:26.322Z,99144.62
2022-12-22T15:29:52.628Z,99159.00
2022-12-22T15:32:18.958Z,99161.84
2022-12-22T15:34:45.348Z,99162.56
2022-12-22T15:37:11.713Z,99174.31
2022-12-22T15:39:38.021Z,99173.69
2022-12-22T15:42:04.376Z,99195.81
2022-12-22T15:44:36.783Z,99196.62
2022-12-22T15:47:05.036Z,99209.25
2022-12-22T15:49:31.413Z,99208.94
2022-12-22T15:51:57.762Z,99214.38
2022-12-22T15:54:24.069Z,99232.50
2022-12-22T15:56:51.075Z,99220.72
2022-12-22T15:59:19.255Z,99241.25
2022-12-22T16:01:45.714Z,99254.28
2022-12-22T16:04:13.439Z,99260.50
2022-12-22T16:06:39.801Z,99266.38
2022-12-22T16:09:06.119Z,99264.66
2022-12-22T16:11:32.447Z,99272.94
2022-12-22T16:13:58.800Z,99285.16
2022-12-22T16:16:25.151Z,99281.56
2022-12-22T16:18:52.186Z,99271.78
2022-12-22T16:21:18.556Z,99284.53
2022-12-22T16:23:44.875Z,99283.53
2022-12-22T16:26:11.216Z,99293.06
2022-12-22T16:28:38.315Z,99291.87
2022-12-22T16:31:04.651Z,99296.22
2022-12-22T16:33:31.002Z,99301.69
2022-12-22T16:35:57.341Z,99315.87
2022-12-22T16:38:23.691Z,99307.87
2022-12-22T16:40:50.217Z,99324.69
2022-12-22T16:46:00.750Z,99334.81
2022-12-22T16:48:27.106Z,99342.25
2022-12-22T16:50:53.446Z,99359.66
2022-12-22T16:53:19.939Z,99363.72
2022-12-22T16:55:46.677Z,99366.31
2022-12-22T16:58:14.129Z,99368.63
2022-12-22T17:00:40.676Z,99368.00
2022-12-22T17:03:07.132Z,99381.66
2022-12-22T17:05:36.326Z,99381.75
2022-12-22T17:08:06.744Z,99384.91
2022-12-22T17:10:33.103Z,99391.97
2022-12-22T17:12:59.422Z,99387.84
2022-12-22T17:15:25.783Z,99400.94
2022-12-22T17:17:52.177Z,99399.03
2022-12-22T17:20:18.532Z,99414.63
2022-12-22T17:22:44.850Z,99406.53
2022-12-22T17:25:11.185Z,99416.59
2022-12-22T17:27:37.493Z,99418.03
2022-12-22T17:30:03.855Z,99418.84
2022-12-22T17:32:30.192Z,99412.47
2022-12-22T17:34:56.529Z,99424.28
2022-12-22T17:37:22.871Z,99433.69
2022-12-22T17:39:49.251Z,99429.03
2022-12-22T17:42:15.634Z,99423.13
2022-12-22T17:44:42.044Z,99427.19
2022-12-22T17:47:08.445Z,99434.97
2022-12-22T17:49:34.817Z,99429.72
2022-12-22T17:52:01.120Z,99419.41
2022-12-22T17:54:27.536Z,99442.59
2022-12-22T17:56:53.970Z,99443.75
2022-12-22T17:59:20.359Z,99438.56
2022-12-22T18:01:46.789Z,99450.63
2022-12-22T18:04:13.769Z,99449.31
2022-12-22T18:06:40.295Z,99451.41
2022-12-22T18:09:06.610Z,99445.37
2022-12-22T18:11:32.990Z,99463.25
2022-12-22T18:13:59.441Z,99462.19
2022-12-22T18:16:25.856Z,99469.91
2022-12-22T18:18:52.455Z,99464.66
2022-12-22T18:21:18.833Z,99470.22
2022-12-22T18:23:50.000Z,99474.28
2022-12-22T18:26:17.119Z,99481.59
2022-12-22T18:28:43.495Z,99484.00
2022-12-22T18:31:09.812Z,99483.56
2022-12-22T18:33:36.237Z,99480.41
2022-12-22T18:36:02.720Z,99487.97
2022-12-22T18:38:29.086Z,99492.00
2022-12-22T18:40:55.624Z,99496.41
2022-12-22T18:43:21.932Z,99498.37
2022-12-22T18:45:48.285Z,99495.12
2022-12-22T18:48:14.627Z,99490.97
2022-12-22T18:50:41.124Z,99486.78
2022-12-22T18:53:07.502Z,99490.28
2022-12-22T18:55:33.829Z,99487.50
2022-12-22T18:58:00.166Z,99484.59
2022-12-22T19:00:26.485Z,99488.06
2022-12-22T19:02:52.966Z,99490.84
2022-12-22T19:05:19.394Z,99489.78
2022-12-22T19:07:45.765Z,99482.59
2022-12-22T19:10:12.065Z,99483.44
2022-12-22T19:12:38.393Z,99481.69
2022-12-22T19:15:04.784Z,99481.78
2022-12-22T19:17:31.097Z,99492.72
2022-12-22T19:19:57.450Z,99490.31
2022-12-22T19:22:23.768Z,99487.88
2022-12-22T19:24:51.639Z,99492.72
2022-12-22T19:27:18.091Z,99500.25
2022-12-22T19:29:45.167Z,99507.50
2022-12-22T19:32:12.538Z,99484.81
2022-12-22T19:34:38.953Z,99496.81
2022-12-22T19:37:05.310Z,99491.69
2022-12-22T19:39:31.643Z,99486.81
2022-12-22T19:41:57.954Z,99487.03
2022-12-22T19:44:24.401Z,99499.44
2022-12-22T19:46:50.775Z,99494.41
2022-12-22T19:49:17.133Z,99498.56
2022-12-22T19:51:43.680Z,99495.22
2022-12-22T19:54:10.093Z,99499.38
2022-12-22T19:56:36.486Z,99493.97
2022-12-22T19:59:02.798Z,99497.75
2022-12-22T20:01:29.279Z,99489.06
2022-12-22T20:03:56.321Z,99497.34
2022-12-22T20:06:22.633Z,99495.00
2022-12-22T20:08:48.953Z,99490.41
2022-12-22T20:11:15.283Z,99489.16
2022-12-22T20:13:41.831Z,99488.66
2022-12-22T20:16:08.274Z,99490.97
2022-12-22T20:18:34.591Z,99490.87
2022-12-22T20:21:00.921Z,99488.81
2022-12-22T20:23:27.341Z,99486.94
2022-12-22T20:25:53.674Z,99484.22
2022-12-22T20:28:20.013Z,99485.28
2022-12-22T20:30:46.387Z,99486.94
2022-12-22T20:33:12.782Z,99489.56
2022-12-22T20:35:39.161Z,99495.72
2022-12-22T20:38:05.645Z,99487.19
2022-12-22T20:40:32.063Z,99488.81
2022-12-22T20:42:58.372Z,99492.09
2022-12-22T20:45:24.703Z,99483.41
2022-12-22T20:47:51.020Z,99486.25
2022-12-22T20:50:17.371Z,99484.75
2022-12-22T20:52:43.680Z,99482.66
2022-12-22T20:55:10.006Z,99485.25
2022-12-22T20:57:36.321Z,99489.87
2022-12-22T21:00:02.613Z,99493.88
2022-12-22T21:02:29.324Z,99494.16
2022-12-22T21:04:55.951Z,99489.34
2022-12-22T21:07:22.324Z,99493.53
2022-12-22T21:09:48.713Z,99495.28
2022-12-22T21:12:15.112Z,99494.25
2022-12-22T21:14:41.434Z,99485.34
2022-12-22T21:17:07.827Z,99488.34
2022-12-22T21:19:34.144Z,99475.41
2022-12-22T21:22:00.485Z,99474.44
2022-12-22T21:24:26.835Z,99483.84
2022-12-22T21:26:53.199Z,99485.44
2022-12-22T21:29:19.539Z,99486.97
2022-12-22T21:31:45.880Z,99480.69
2022-12-22T21:34:12.223Z,99481.56
2022-12-22T21:36:38.569Z,99477.03
2022-12-22T21:39:04.980Z,99474.22
2022-12-22T21:41:50.091Z,99467.53
2022-12-22T21:44:16.475Z,99457.28
2022-12-22T21:46:42.985Z,99461.91
2022-12-22T21:49:09.383Z,99458.78
2022-12-22T21:51:35.746Z,99454.66
2022-12-22T21:54:02.069Z,99459.72
2022-12-22T21:56:28.361Z,99456.81
2022-12-22T21:58:58.849Z,99454.19
2022-12-22T22:01:28.312Z,99460.22
2022-12-22T22:03:54.824Z,99455.59
2022-12-22T22:06:21.214Z,99455.28
2022-12-22T22:08:47.545Z,99449.12
2022-12-22T22:11:13.853Z,99445.66
2022-12-22T22:13:40.298Z,99452.16
2022-12-22T22:16:06.637Z,99439.91
2022-12-22T22:18:33.014Z,99439.56
2022-12-22T22:20:59.330Z,99437.94
2022-12-22T22:23:25.680Z,99437.13
2022-12-22T22:25:51.989Z,99429.50
2022-12-22T22:28:18.306Z,99432.31
2022-12-22T22:30:44.719Z,99433.81
2022-12-22T22:33:11.095Z,99432.53
2022-12-22T22:35:37.422Z,99429.16
2022-12-22T22:38:03.771Z,99423.75
2022-12-22T22:40:30.080Z,99413.78
2022-12-22T22:42:57.098Z,99407.31
2022-12-22T22:45:24.284Z,99398.16
2022-12-22T22:47:51.004Z,99393.22
2022-12-22T22:50:19.034Z,99391.78
2022-12-22T22:52:45.367Z,99389.16
2022-12-22T22:55:12.835Z,99390.31
2022-12-22T22:57:39.153Z,99385.22
2022-12-22T23:00:05.488Z,99377.59
2022-12-22T23:02:31.959Z,99374.59
2022-12-22T23:04:58.482Z,99373.78
2022-12-22T23:07:24.823Z,99379.12
2022-12-22T23:09:51.144Z,99372.78
2022-12-22T23:12:17.510Z,99378.44
2022-12-22T23:14:43.817Z,99375.34
2022-12-22T23:17:10.146Z,99368.16
2022-12-22T23:19:36.464Z,99373.38
2022-12-22T23:22:02.787Z,99361.19
2022-12-22T23:24:29.102Z,99362.63
2022-12-22T23:26:55.508Z,99361.19
2022-12-22T23:29:21.821Z,99361.47
2022-12-22T23:31:48.214Z,99356.22
2022-12-22T23:34:14.607Z,99348.91
2022-12-22T23:36:40.966Z,99363.34
2022-12-22T23:39:07.276Z,99348.62
2022-12-22T23:41:33.597Z,99353.50
2022-12-22T23:43:59.918Z,99342.62
2022-12-22T23:46:26.367Z,99352.25
2022-12-22T23:48:53.137Z,99336.69
2022-12-22T23:51:19.468Z,99340.72
2022-12-22T23:53:45.828Z,99335.41
2022-12-22T23:56:12.149Z,99330.06
2022-12-22T23:58:38.502Z,99332.31
